Svend Maersk — OYJS2 — position and weather

sailwx.info

Track history (hours):
 
Tides and Currents Weather Stations Pressure Air Temp Water Temp Dewpoint Dewpoint Depression Visibility Wind Speed Wind Dir Waves Ship Positions

Svend Maersk

Last reported at 2014-Sep-03 06:33 UTC. Time now 2014-Sep-03 07:04 UTC.
Position N 30°32' E 122°21'.

Type: Ship (hazmat cat A). MMSI: 219791000.

Date/timePositionNaut miles runAvg speedWind from/ knotsBaromVisibWave heightAir tempDewpointWater temp
2014-Sep-03 06:33N 30°32' E 122°21'1212.1
2014-Sep-03 05:33N 30°35' E 122°07'4 3.4
2014-Sep-03 04:27N 30°37' E 122°04'0 0.0
2014-Sep-03 03:27N 30°37' E 122°04'0 0.0
2014-Sep-03 00:33N 30°37' E 122°04'0 0.0
2014-Sep-02 23:15N 30°37' E 122°04'0 0.0
2014-Sep-02 22:09N 30°37' E 122°04'0 0.0
2014-Sep-02 20:33N 30°37' E 122°04'0 0.0
2014-Sep-02 17:09N 30°37' E 122°04'0 0.0
2014-Sep-02 03:22N 30°37' E 122°04'1 1.0
2014-Sep-02 02:32N 30°37' E 122°03'9 9.1
2014-Sep-02 01:33N 30°34' E 122°12'8 7.8
2014-Sep-02 00:33N 30°33' E 122°21'1111.1
2014-Sep-01 23:32N 30°33' E 122°34'1212.5
2014-Sep-01 22:33N 30°34' E 122°48'1413.8
2014-Sep-01 21:33N 30°43' E 123°00'1918.0
2014-Sep-01 20:31N 31°01' E 123°07'32013.2
2014-Aug-31 20:18N 35°57' E 120°42'811.2
2014-Aug-31 19:33N 35°59' E 120°32'1010.4
2014-Aug-31 18:33N 36°01' E 120°20'6 5.9
2014-Aug-31 17:33N 36°01' E 120°12'0 0.0
2014-Aug-31 14:26N 36°01' E 120°12'0 0.0
2014-Aug-30 15:20N 36°01' E 120°12'4 4.1
2014-Aug-30 14:22N 36°02' E 120°17'810.2
2014-Aug-30 13:33N 36°00' E 120°27'1111.3
2014-Aug-30 12:32N 35°58' E 120°41'  
Track history (hours):
 
Tides and Currents Weather Stations Pressure Air Temp Water Temp Dewpoint Dewpoint Depression Visibility Wind Speed Wind Dir Waves Ship Positions

Svend Maersk

Last reported at 2014-Sep-03 06:33 UTC. Time now 2014-Sep-03 07:04 UTC.
Position N 30°32' E 122°21'.

Type: Ship (hazmat cat A). MMSI: 219791000.

Date/timePositionNaut miles runAvg speedWind from/ knotsBaromVisibWave heightAir tempDewpointWater temp
2014-Sep-03 06:33N 30°32' E 122°21'1212.1
2014-Sep-03 05:33N 30°35' E 122°07'4 3.4
2014-Sep-03 04:27N 30°37' E 122°04'0 0.0
2014-Sep-03 03:27N 30°37' E 122°04'0 0.0
2014-Sep-03 00:33N 30°37' E 122°04'0 0.0
2014-Sep-02 23:15N 30°37' E 122°04'0 0.0
2014-Sep-02 22:09N 30°37' E 122°04'0 0.0
2014-Sep-02 20:33N 30°37' E 122°04'0 0.0
2014-Sep-02 17:09N 30°37' E 122°04'0 0.0
2014-Sep-02 03:22N 30°37' E 122°04'1 1.0
2014-Sep-02 02:32N 30°37' E 122°03'9 9.1
2014-Sep-02 01:33N 30°34' E 122°12'8 7.8
2014-Sep-02 00:33N 30°33' E 122°21'1111.1
2014-Sep-01 23:32N 30°33' E 122°34'1212.5
2014-Sep-01 22:33N 30°34' E 122°48'1413.8
2014-Sep-01 21:33N 30°43' E 123°00'1918.0
2014-Sep-01 20:31N 31°01' E 123°07'32013.2
2014-Aug-31 20:18N 35°57' E 120°42'811.2
2014-Aug-31 19:33N 35°59' E 120°32'1010.4
2014-Aug-31 18:33N 36°01' E 120°20'6 5.9
2014-Aug-31 17:33N 36°01' E 120°12'0 0.0
2014-Aug-31 14:26N 36°01' E 120°12'0 0.0
2014-Aug-30 15:20N 36°01' E 120°12'4 4.1
2014-Aug-30 14:22N 36°02' E 120°17'810.2
2014-Aug-30 13:33N 36°00' E 120°27'1111.3
2014-Aug-30 12:32N 35°58' E 120°41'  

Dump ship's entire track history